Aérodrome :
LOGIN :

S'inscrire | Disclaimer

   EN    FR    IT 

 










Légende :    VFR   VFR Marginal   IFR   IFR Intensif   IFR Très Intensif
Visi : 
Plafond : 
>= 8 km
>= 3000ft
5 à 8 km
1000 à 3000 ft
1500m à 5 km
500 à 1000 ft
800 à 1500m
200 à 500 ft
< 800m
< 200 ft
Symboles :   Orages  Brouillard  Fortes neiges  Fortes précipitations  Vent > 20 kt
SIGMETs :   Divers  Orages  Givrage  Turbulence  Onde Orograph.  Cendres Volcan.







- Altitude de l'aérodrome : 353 ft
- Code IATA : ZAG


LDZA - Zagreb Pleso

DERNIER METAR :
  • 230400Z 36004KT 330V030 9999 -RA FEW010 BKN033 19/17 Q1011 NOSIG

METARs EXPIRÉS :
  • 230330Z 27004KT 220V330 9999 FEW040 19/17 Q1011 TEMPO RA
  • 230300Z 26005KT CAVOK 19/17 Q1010 NOSIG
  • 230230Z 27005KT 250V310 CAVOK 19/17 Q1010 NOSIG
  • 230200Z 22003KT 190V250 CAVOK 19/17 Q1011 NOSIG
  • 230130Z 21004KT 9999 BKN048 18/17 Q1011 NOSIG

TAF TAF LDZA
Valide du 23 à 00h jusqu'au 24 à 00h UTC


222325Z 2300/2400 30006KT 9999 BKN035 TX23/2316Z TN18/2302Z
TEMPO 2300/2312 RA BKN010 BKN030
PROB40
TEMPO 2300/2316 SHRA SCT030TCU BKN035
BECMG 2307/2309 03012KT
PROB30
TEMPO 2311/2316 TSRA FEW025CB BKN030
ATIS : +385 1 6-259-214
Pas de NOTAMs connus pour ce terrain.
1 SIGMET publié pour la FIR Zagreb (LDZO) :
 
Orages noyés dans la masse
LDZO SIGMET 2 VALID 230304/230500 LDZA
LDZO ZAGREB FIR EMBD TS OBS WI N4328 E01432 - N4434 E01319 - N4429 E01425 - N4321 E01550 - N4250 E01531 - N4328 E01432 TOP FL380 MOV SE 10KT NC=



MET'MAP, la Météo Aéronautique d'un coup d'oeil ! - Copyright ORBIFLY Décembre 2007 - Disclaimer

ORBIFLY MET'MAP TEAM :

Programmation & Développement : Alexandra Zaïnal
Conception & Développement : Baudouin d'Aumeries
Co-Programmation & Développement : Marc-Olivier Méhu
Soutien technique & logistique : Manuel Goepfert

Contact : metmap@orbifly.com




SOURCES & CREDITS :

   NOAA